Time;durP1;ratioP1;P1;durP2;ratioP2;P2;SDS_P1;SDS_P2;PMS_P1;PMS_P2;Temp;Humidity;BMP_temperature;BMP_pressure;BME280_temperature;BME280_humidity;BME280_pressure;Samples;Min_cycle;Max_cycle;Signal;HPM_P1;HPM_P2
2024/04/01 00:04:16;;;;;;;91.40;16.03;;;;;;;14.64;91.19;98908.73;4970785;57;1140545;-79
2024/04/01 00:09:22;;;;;;;73.90;14.43;;;;;;;14.57;91.16;98921.09;4894479;58;1140869;-80
2024/04/01 00:14:27;;;;;;;69.80;15.90;;;;;;;14.45;91.17;98902.11;4939203;58;1141173;-80
2024/04/01 00:19:33;;;;;;;75.67;17.77;;;;;;;14.43;91.52;98905.45;5091680;56;1141316;-78
2024/04/01 00:24:39;;;;;;;91.57;18.82;;;;;;;14.26;90.94;98896.80;5056319;57;1141169;-80
2024/04/01 00:29:45;;;;;;;77.37;17.57;;;;;;;14.09;91.10;98905.94;5056671;57;1141289;-79
2024/04/01 00:34:51;;;;;;;72.83;15.93;;;;;;;13.91;91.55;98900.11;5076566;57;1141236;-80
2024/04/01 00:39:57;;;;;;;59.07;14.63;;;;;;;13.72;92.87;98907.60;5057121;56;1140752;-79
2024/04/01 00:45:03;;;;;;;94.27;14.50;;;;;;;13.53;92.63;98908.57;5044605;56;1140757;-80
2024/04/01 00:50:09;;;;;;;74.23;13.93;;;;;;;13.48;94.34;98905.11;5051347;57;1140889;-79
2024/04/01 00:55:14;;;;;;;68.77;13.20;;;;;;;13.41;94.13;98901.52;5031429;57;1140994;-80
2024/04/01 01:00:20;;;;;;;63.93;12.27;;;;;;;13.36;95.59;98911.34;5001867;57;1141149;-80
2024/04/01 01:05:27;;;;;;;53.87;10.90;;;;;;;13.35;96.14;98898.23;4950005;58;1141014;-80
2024/04/01 01:10:34;;;;;;;76.60;10.87;;;;;;;13.31;96.24;98888.45;4950210;58;1140862;-79
2024/04/01 01:15:40;;;;;;;64.90;10.68;;;;;;;13.24;96.79;98898.64;4999745;56;1140754;-79
2024/04/01 01:20:45;;;;;;;56.30;11.37;;;;;;;13.26;97.06;98893.48;5100053;56;1140988;-79
2024/04/01 01:25:51;;;;;;;58.07;13.30;;;;;;;13.17;97.33;98897.17;5158308;56;1141096;-78
2024/04/01 01:30:57;;;;;;;78.83;15.40;;;;;;;13.18;98.12;98890.87;5137874;56;1141209;-80
2024/04/01 01:36:03;;;;;;;68.63;14.53;;;;;;;13.21;98.56;98887.04;5136683;56;1141456;-79
2024/04/01 01:41:09;;;;;;;80.23;15.20;;;;;;;13.21;98.38;98897.16;5155744;56;1141085;-79
2024/04/01 01:46:14;;;;;;;82.33;14.13;;;;;;;12.92;96.81;98912.88;5138557;56;1140714;-81
2024/04/01 01:51:20;;;;;;;76.77;15.17;;;;;;;12.75;99.05;98892.23;5138667;56;1140748;-81
2024/04/01 01:56:26;;;;;;;56.40;12.93;;;;;;;12.82;100.00;98881.27;5138857;56;1140868;-80
2024/04/01 02:01:32;;;;;;;59.40;14.60;;;;;;;12.79;100.00;98874.97;5090419;56;1240149;-81
2024/04/01 02:06:37;;;;;;;72.40;14.95;;;;;;;12.61;98.71;98871.23;5054780;56;1142906;-79
2024/04/01 02:11:44;;;;;;;79.07;14.00;;;;;;;12.46;100.00;98876.92;5103041;56;1140843;-80
2024/04/01 02:16:49;;;;;;;77.20;15.13;;;;;;;12.38;100.00;98885.39;5158597;56;1142966;-80
2024/04/01 02:21:55;;;;;;;71.17;12.63;;;;;;;12.30;100.00;98875.16;5138442;56;1143321;-81
2024/04/01 02:27:01;;;;;;;68.33;15.20;;;;;;;12.22;100.00;98864.55;5138633;56;1142812;-80
2024/04/01 02:32:08;;;;;;;75.67;14.90;;;;;;;12.18;100.00;98869.06;5158625;56;1143020;-80
2024/04/01 02:37:13;;;;;;;67.43;11.23;;;;;;;12.16;100.00;98873.20;5138475;56;1143167;-80
2024/04/01 02:42:19;;;;;;;77.40;13.90;;;;;;;12.16;100.00;98871.88;5138161;56;1142957;-81
2024/04/01 02:47:25;;;;;;;78.67;13.50;;;;;;;12.15;100.00;98876.84;5139002;56;1142873;-81
2024/04/01 02:52:31;;;;;;;56.87;11.80;;;;;;;12.06;100.00;98871.74;5153145;56;1142775;-79
2024/04/01 02:57:36;;;;;;;59.47;10.93;;;;;;;12.03;100.00;98878.70;5090870;56;1142683;-80
2024/04/01 03:02:44;;;;;;;62.97;13.47;;;;;;;12.03;100.00;98880.85;5090600;56;1142905;-80
2024/04/01 03:07:52;;;;;;;69.10;14.57;;;;;;;11.96;100.00;98866.11;5114281;56;1148820;-79
2024/04/01 03:12:58;;;;;;;71.40;12.27;;;;;;;11.91;100.00;98867.13;5132231;56;1142850;-80
2024/04/01 03:18:03;;;;;;;45.07;9.70;;;;;;;11.83;100.00;98867.63;5133149;56;1143103;-78
2024/04/01 03:23:09;;;;;;;65.73;10.13;;;;;;;11.71;100.00;98862.31;5153179;56;1141453;-78
2024/04/01 03:28:15;;;;;;;69.03;13.37;;;;;;;11.50;100.00;98854.36;5133074;56;1142922;-79
2024/04/01 03:33:21;;;;;;;78.33;12.50;;;;;;;11.44;100.00;98840.98;5130043;56;1143013;-79
2024/04/01 03:38:27;;;;;;;64.37;11.30;;;;;;;11.45;100.00;98846.11;5133651;56;1142951;-79
2024/04/01 03:43:33;;;;;;;70.50;13.03;;;;;;;11.55;100.00;98856.52;5153513;56;1142854;-78
2024/04/01 03:48:39;;;;;;;71.37;12.43;;;;;;;11.66;100.00;98875.21;5133597;56;1143003;-80
2024/04/01 03:53:44;;;;;;;52.65;11.88;;;;;;;11.68;100.00;98876.70;5138230;56;1143037;-81
2024/04/01 03:58:50;;;;;;;55.52;11.10;;;;;;;11.62;100.00;98878.19;5138349;56;1142794;-79
2024/04/01 04:03:56;;;;;;;67.00;12.77;;;;;;;11.43;100.00;98874.56;5055171;56;1142817;-80
2024/04/01 04:09:02;;;;;;;68.70;12.53;;;;;;;11.41;100.00;98889.78;5120319;56;1142614;-81
2024/04/01 04:14:08;;;;;;;62.17;13.43;;;;;;;11.33;100.00;98891.07;5159284;56;1143027;-79
2024/04/01 04:19:19;;;;;;;80.30;13.60;;;;;;;11.28;100.00;98888.94;5139036;56;1142899;-79
2024/04/01 04:24:25;;;;;;;63.87;12.43;;;;;;;11.20;100.00;98902.63;5139504;56;1142824;-80
2024/04/01 04:29:31;;;;;;;69.17;13.88;;;;;;;11.12;100.00;98899.98;5133861;56;1142976;-79
2024/04/01 04:34:37;;;;;;;75.80;14.00;;;;;;;11.08;100.00;98896.83;5158891;56;1143342;-79
2024/04/01 04:39:43;;;;;;;72.08;11.53;;;;;;;11.02;100.00;98897.95;5138701;56;1142996;-81
2024/04/01 04:44:49;;;;;;;72.15;10.95;;;;;;;10.93;100.00;98889.18;5138570;56;1143191;-81
2024/04/01 04:49:55;;;;;;;76.53;14.30;;;;;;;10.92;100.00;98890.17;5158914;56;1143036;-80
2024/04/01 04:55:00;;;;;;;59.80;9.93;;;;;;;10.93;100.00;98887.36;5134716;56;1143061;-81
2024/04/01 05:00:31;;;;;;;55.07;9.80;;;;;;;10.87;100.00;98880.06;5116627;56;1140790;-80
2024/04/01 05:05:17;;;;;;;77.73;11.27;;;;;;;10.86;100.00;98867.82;5134339;56;1140848;-78
2024/04/01 05:10:23;;;;;;;63.23;10.33;;;;;;;10.87;100.00;98860.72;5133703;56;1143067;-78
2024/04/01 05:15:30;;;;;;;61.15;10.88;;;;;;;10.90;100.00;98858.59;5132976;56;1142996;-78
2024/04/01 05:20:37;;;;;;;55.85;10.13;;;;;;;10.99;100.00;98858.13;5137743;56;1152117;-80
2024/04/01 05:25:43;;;;;;;63.87;10.98;;;;;;;11.10;100.00;98843.75;5119263;56;1143291;-78
2024/04/01 05:30:53;;;;;;;65.30;11.40;;;;;;;11.20;100.00;98841.28;5119170;56;1143187;-80
2024/04/01 05:35:57;;;;;;;67.50;11.57;;;;;;;11.23;100.00;98833.51;5083682;56;1143010;-81
2024/04/01 05:41:02;;;;;;;53.00;11.07;;;;;;;11.24;100.00;98839.14;5110290;56;1142928;-81
2024/04/01 05:46:08;;;;;;;65.53;12.33;;;;;;;11.26;100.00;98841.13;5048608;57;1142825;-78
2024/04/01 05:51:14;;;;;;;54.33;10.80;;;;;;;11.33;100.00;98835.49;5153306;56;1143000;-79
2024/04/01 05:56:20;;;;;;;74.07;10.03;;;;;;;11.35;100.00;98830.03;5052254;57;1143350;-80
2024/04/01 06:01:25;;;;;;;66.37;10.40;;;;;;;11.36;100.00;98820.61;4956323;58;1142844;-78
2024/04/01 06:06:31;;;;;;;67.95;11.73;;;;;;;11.48;100.00;98827.72;4967998;58;1142816;-78
2024/04/01 06:11:37;;;;;;;78.60;12.27;;;;;;;11.68;100.00;98830.86;4991524;58;1143200;-79
2024/04/01 06:16:43;;;;;;;89.43;14.63;;;;;;;11.96;100.00;98830.34;5078091;56;1152401;-78
2024/04/01 06:21:49;;;;;;;78.20;12.17;;;;;;;12.28;100.00;98828.10;5055455;57;1142870;-79
2024/04/01 06:26:54;;;;;;;79.15;12.75;;;;;;;12.52;100.00;98809.13;5076334;57;1143207;-78
2024/04/01 06:32:03;;;;;;;66.70;8.87;;;;;;;12.77;100.00;98788.59;5055814;57;1143057;-79
2024/04/01 06:37:07;;;;;;;75.53;12.67;;;;;;;13.14;100.00;98781.23;4974080;58;1141008;-81
2024/04/01 06:42:13;;;;;;;71.03;12.50;;;;;;;13.37;100.00;98795.33;5076935;56;1142966;-80
2024/04/01 06:47:19;;;;;;;85.17;10.70;;;;;;;13.46;100.00;98802.70;5137008;56;1142922;-81
2024/04/01 06:52:25;;;;;;;99.37;10.70;;;;;;;13.45;100.00;98793.91;5129289;56;1142798;-81
2024/04/01 06:57:31;;;;;;;62.93;11.17;;;;;;;13.43;100.00;98801.27;5116630;56;1143144;-78
2024/04/01 07:02:36;;;;;;;56.67;12.03;;;;;;;13.60;100.00;98794.77;5161255;55;1143114;-83
2024/04/01 07:07:42;;;;;;;67.40;11.60;;;;;;;13.80;100.00;98783.63;5138285;56;1143225;-78
2024/04/01 07:12:48;;;;;;;94.77;17.70;;;;;;;13.89;100.00;98797.17;5139292;56;1142910;-80
2024/04/01 07:17:54;;;;;;;69.42;19.12;;;;;;;13.99;100.00;98797.72;5156734;56;1143112;-83
2024/04/01 07:23:00;;;;;;;69.80;13.83;;;;;;;14.00;100.00;98782.92;5137173;56;1142861;-83
2024/04/01 07:28:06;;;;;;;73.23;12.63;;;;;;;13.96;100.00;98795.42;5139120;56;1142770;-79
2024/04/01 07:33:12;;;;;;;101.20;20.17;;;;;;;13.99;100.00;98826.96;5159669;56;1142847;-82
2024/04/01 07:38:18;;;;;;;71.37;13.73;;;;;;;14.05;100.00;98835.55;5139027;56;1144997;-79
2024/04/01 07:43:24;;;;;;;143.97;42.67;;;;;;;14.17;100.00;98839.91;5138938;56;1142941;-81
2024/04/01 07:48:30;;;;;;;148.40;45.27;;;;;;;14.35;100.00;98803.13;5138645;56;1145060;-80
2024/04/01 07:53:36;;;;;;;100.53;24.77;;;;;;;14.70;100.00;98800.20;5158231;56;1144845;-81
2024/04/01 07:58:42;;;;;;;138.77;37.47;;;;;;;14.97;100.00;98804.80;5121896;56;1145219;-80
2024/04/01 08:03:47;;;;;;;121.43;34.37;;;;;;;15.01;100.00;98806.58;5138816;55;1145071;-79
2024/04/01 08:08:53;;;;;;;140.15;34.90;;;;;;;15.05;100.00;98805.20;5127959;56;1145257;-83
2024/04/01 08:13:59;;;;;;;71.77;13.83;;;;;;;15.09;100.00;98813.13;5053523;57;1145276;-80
2024/04/01 08:19:05;;;;;;;76.47;13.20;;;;;;;15.16;100.00;98826.49;5101856;56;1143142;-81
2024/04/01 08:24:11;;;;;;;61.10;9.77;;;;;;;15.14;100.00;98837.33;5158562;56;1142922;-80
2024/04/01 08:29:17;;;;;;;78.17;17.00;;;;;;;15.14;100.00;98833.34;5123068;56;1140785;-83
2024/04/01 08:34:23;;;;;;;88.13;16.90;;;;;;;15.23;100.00;98821.56;5052592;56;1142775;-83
2024/04/01 08:39:29;;;;;;;56.73;11.35;;;;;;;15.27;100.00;98816.69;5054136;56;1142781;-82
2024/04/01 08:44:35;;;;;;;62.13;11.63;;;;;;;15.28;100.00;98814.31;5107387;56;1142886;-81
2024/04/01 08:50:01;;;;;;;81.93;14.10;;;;;;;15.31;100.00;98797.45;5138069;56;1143083;-81
2024/04/01 08:55:07;;;;;;;66.50;14.27;;;;;;;15.36;100.00;98791.56;5138207;56;1142911;-81
2024/04/01 09:00:13;;;;;;;59.80;11.83;;;;;;;15.37;100.00;98795.38;5157378;56;1143057;-81
2024/04/01 09:05:19;;;;;;;87.57;17.10;;;;;;;15.37;100.00;98779.89;5068004;56;1142755;-82
2024/04/01 09:10:26;;;;;;;148.47;35.43;;;;;;;15.39;100.00;98770.70;5056365;56;1143218;-82
2024/04/01 09:15:32;;;;;;;114.70;25.15;;;;;;;15.47;100.00;98772.38;5056073;57;1145074;-82
2024/04/01 09:20:38;;;;;;;70.67;15.10;;;;;;;15.51;100.00;98766.99;5075341;57;1145116;-83
2024/04/01 09:25:44;;;;;;;104.90;28.10;;;;;;;15.52;100.00;98751.33;5047707;57;1142945;-83
2024/04/01 09:30:51;;;;;;;59.80;11.67;;;;;;;15.53;100.00;98738.31;5055920;57;1144696;-84
2024/04/01 09:35:56;;;;;;;81.10;18.80;;;;;;;15.53;100.00;98738.31;5075775;57;1142889;-83
2024/04/01 09:41:03;;;;;;;67.27;15.13;;;;;;;15.57;100.00;98716.97;5050243;57;1143143;-82
2024/04/01 09:46:08;;;;;;;102.70;22.47;;;;;;;15.63;100.00;98710.02;5053669;57;1142913;-79
2024/04/01 09:51:15;;;;;;;66.00;14.63;;;;;;;15.76;100.00;98725.58;5075281;56;1145059;-81
2024/04/01 09:56:35;;;;;;;44.70;9.47;;;;;;;15.91;100.00;98722.79;5055871;56;1143010;-81
2024/04/01 10:02:07;;;;;;;64.87;10.10;;;;;;;16.09;100.00;98713.76;5134659;56;1140895;-83
2024/04/01 10:07:38;;;;;;;44.73;8.70;;;;;;;16.17;99.24;98734.13;4873843;59;1143132;-80
2024/04/01 10:12:54;;;;;;;43.03;9.93;;;;;;;16.18;97.53;98750.44;4870536;57;1138860;-82
2024/04/01 10:18:30;;;;;;;40.88;8.43;;;;;;;16.20;99.94;98748.37;4890018;57;1138774;-83
2024/04/01 10:24:09;;;;;;;50.57;9.27;;;;;;;16.25;99.40;98742.45;4833307;59;1138669;-79
2024/04/01 10:29:36;;;;;;;43.57;9.00;;;;;;;16.35;99.32;98734.38;4798696;60;1138526;-79
2024/04/01 10:35:08;;;;;;;53.63;9.98;;;;;;;16.42;99.60;98722.41;4800785;60;1148801;-81
2024/04/01 10:40:50;;;;;;;37.17;7.10;;;;;;;16.59;99.15;98712.20;4829492;59;1139125;-79
2024/04/01 10:51:30;;;;;;;43.73;7.20;;;;;;;16.86;97.40;98686.71;5262089;55;46906;-79
2024/04/01 10:57:21;;;;;;;41.23;6.58;;;;;;;16.96;95.53;98684.17;5111444;56;1134770;-81
2024/04/01 11:02:55;;;;;;;36.93;6.87;;;;;;;17.04;93.63;98680.77;5045281;56;1138861;-81
2024/04/01 11:08:31;;;;;;;32.45;6.10;;;;;;;17.02;92.79;98649.44;5093250;56;1139183;-79
2024/04/01 11:13:37;;;;;;;38.97;6.20;;;;;;;17.04;91.00;98629.20;5027871;56;1138571;-83
2024/04/01 11:19:06;;;;;;;38.63;7.47;;;;;;;17.17;90.90;98637.20;5027697;57;1138735;-84
2024/04/01 11:24:56;;;;;;;31.37;6.93;;;;;;;17.27;90.99;98648.28;5047268;57;1138903;-83
2024/04/01 11:30:25;;;;;;;39.45;6.75;;;;;;;17.40;90.98;98613.54;5027333;57;1138919;-84
2024/04/01 11:35:52;;;;;;;39.40;7.57;;;;;;;17.51;90.77;98602.71;5023972;56;1138720;-85
2024/04/01 11:41:01;;;;;;;31.80;6.22;;;;;;;17.64;89.90;98614.73;5007395;56;1138766;-83
2024/04/01 11:46:10;;;;;;;42.83;7.30;;;;;;;17.92;92.33;98621.10;4963031;58;1138642;-83
2024/04/01 11:51:17;;;;;;;44.40;12.33;;;;;;;18.37;84.85;98603.67;4942085;57;1139024;-83
2024/04/01 11:56:41;;;;;;;49.47;9.23;;;;;;;18.56;85.09;98608.91;4943328;57;1141114;-82
2024/04/01 12:01:47;;;;;;;43.30;7.27;;;;;;;18.75;83.82;98617.05;5008389;57;1138645;-83
2024/04/01 12:06:56;;;;;;;33.88;7.20;;;;;;;18.89;81.74;98609.20;4995357;57;1138782;-81
2024/04/01 12:12:02;;;;;;;44.43;18.10;;;;;;;18.96;81.85;98605.42;4930514;58;1138578;-81
2024/04/01 12:17:10;;;;;;;38.08;7.25;;;;;;;19.06;82.47;98600.92;4826152;58;1140961;-83
2024/04/01 12:22:17;;;;;;;30.15;5.85;;;;;;;19.28;80.67;98603.99;4943839;57;1138929;-81
2024/04/01 12:27:23;;;;;;;31.93;6.37;;;;;;;19.52;78.93;98603.69;4937118;58;1138573;-81
2024/04/01 12:32:33;;;;;;;46.40;15.72;;;;;;;19.61;77.02;98603.16;4959359;57;1138781;-84
2024/04/01 12:37:42;;;;;;;49.55;14.23;;;;;;;19.56;76.21;98594.13;5080950;56;1140814;-82
2024/04/01 12:42:49;;;;;;;44.05;7.28;;;;;;;19.53;76.31;98625.44;4982013;56;1140510;-84
2024/04/01 12:47:55;;;;;;;38.00;8.87;;;;;;;19.56;75.58;98610.22;5025028;56;1138456;-81
2024/04/01 12:53:27;;;;;;;41.50;9.53;;;;;;;19.72;76.21;98592.71;4974711;56;1138587;-81
2024/04/01 12:58:44;;;;;;;31.83;5.83;;;;;;;19.87;76.67;98580.55;5042057;56;1138973;-81
2024/04/01 13:04:25;;;;;;;38.64;6.80;;;;;;;19.96;74.54;98578.39;5125875;56;1138881;-82
2024/04/01 13:09:35;;;;;;;39.13;11.00;;;;;;;19.99;75.51;98572.05;5129182;56;1138874;-82
2024/04/01 13:14:54;;;;;;;39.37;8.17;;;;;;;20.11;76.40;98576.13;5138902;56;1141347;-82
2024/04/01 13:20:06;;;;;;;39.98;9.23;;;;;;;20.15;74.72;98576.49;5096165;56;1139120;-81
2024/04/01 13:25:26;;;;;;;46.60;11.47;;;;;;;20.23;75.59;98584.21;5075085;56;1138709;-82
2024/04/01 13:30:39;;;;;;;42.58;10.10;;;;;;;20.34;73.06;98572.16;5079414;56;1141043;-81
2024/04/01 13:36:25;;;;;;;60.63;10.68;;;;;;;20.40;72.77;98561.59;5073063;56;1140987;-82
2024/04/01 13:41:36;;;;;;;52.07;10.43;;;;;;;20.52;74.48;98590.63;4955618;56;1141315;-82
2024/04/01 13:46:58;;;;;;;49.40;9.13;;;;;;;20.53;74.10;98593.61;5090769;56;1140958;-81
2024/04/01 13:52:20;;;;;;;40.45;7.12;;;;;;;20.56;75.49;98580.55;4855993;59;1139048;-80
2024/04/01 13:57:45;;;;;;;40.85;7.25;;;;;;;20.57;73.26;98555.33;4849131;59;1138730;-80
2024/04/01 14:03:16;;;;;;;33.90;7.36;;;;;;;20.58;72.48;98556.15;4835070;59;1138989;-82
2024/04/01 14:08:47;;;;;;;37.05;8.15;;;;;;;20.61;74.43;98543.61;4701303;61;1138965;-81
2024/04/01 14:14:23;;;;;;;43.33;7.73;;;;;;;20.64;75.01;98556.02;4648287;61;1140989;-81
2024/04/01 14:20:00;;;;;;;56.83;8.75;;;;;;;20.67;74.23;98553.41;4687937;60;1138683;-82
2024/04/01 14:25:06;;;;;;;43.70;9.00;;;;;;;20.68;74.71;98544.30;4701607;61;1138851;-81
2024/04/01 14:30:13;;;;;;;62.78;8.88;;;;;;;20.66;73.82;98539.16;4912379;58;1139243;-80
2024/04/01 14:35:19;;;;;;;49.53;7.53;;;;;;;20.68;74.56;98545.12;4874919;59;1139034;-82
2024/04/01 14:40:24;;;;;;;44.85;9.20;;;;;;;20.67;74.79;98545.34;5085012;56;1138934;-80
2024/04/01 14:45:30;;;;;;;43.13;8.45;;;;;;;20.66;73.70;98550.42;5137918;56;1138561;-82
2024/04/01 14:50:36;;;;;;;47.15;8.78;;;;;;;20.62;75.36;98536.63;5158119;56;1138674;-81
2024/04/01 14:55:43;;;;;;;56.35;7.87;;;;;;;20.58;75.37;98527.95;5100996;56;1138965;-79
2024/04/01 15:00:50;;;;;;;74.15;10.63;;;;;;;20.55;76.40;98531.09;5096429;56;1138655;-81
2024/04/01 15:05:56;;;;;;;53.25;8.18;;;;;;;20.51;76.77;98544.67;5146588;56;1140862;-81
2024/04/01 15:11:05;;;;;;;44.88;8.78;;;;;;;20.47;77.31;98548.89;5127069;56;1138671;-81
2024/04/01 15:16:14;;;;;;;54.90;9.28;;;;;;;20.41;77.70;98553.31;5126244;56;1139223;-79
2024/04/01 15:21:20;;;;;;;48.05;9.45;;;;;;;20.40;78.29;98550.33;5145556;56;1138744;-82
2024/04/01 15:26:27;;;;;;;88.00;27.02;;;;;;;20.34;78.54;98542.63;5127017;56;1138672;-82
2024/04/01 15:31:34;;;;;;;80.42;21.55;;;;;;;20.29;78.94;98537.67;5126486;56;1141211;-82
2024/04/01 15:36:42;;;;;;;108.25;50.63;;;;;;;20.23;79.77;98547.97;5146722;56;1141069;-82
2024/04/01 15:41:49;;;;;;;76.35;29.77;;;;;;;20.18;80.10;98543.28;5124406;56;1143230;-82
2024/04/01 15:46:55;;;;;;;73.50;18.17;;;;;;;20.14;81.13;98538.09;5056353;56;1140998;-81
2024/04/01 15:52:02;;;;;;;55.03;14.15;;;;;;;20.10;81.61;98541.45;5062128;57;1141167;-81
2024/04/01 15:57:08;;;;;;;57.40;14.70;;;;;;;20.03;82.42;98543.70;5097738;56;1140868;-81
2024/04/01 16:02:17;;;;;;;70.47;16.73;;;;;;;19.96;83.40;98543.51;4959369;58;1140963;-82
2024/04/01 16:07:28;;;;;;;70.10;15.38;;;;;;;19.82;83.13;98550.09;5147000;56;1140636;-81
2024/04/01 16:12:34;;;;;;;44.20;9.75;;;;;;;19.70;84.13;98567.48;5127276;56;1141133;-82
2024/04/01 16:17:42;;;;;;;46.83;10.43;;;;;;;19.54;85.31;98572.93;5087881;56;1138894;-82
2024/04/01 16:22:51;;;;;;;68.18;14.17;;;;;;;19.44;86.65;98580.63;5079835;57;1150171;-82
2024/04/01 16:28:01;;;;;;;75.37;20.40;;;;;;;19.39;89.41;98576.47;5033901;57;1141089;-83
2024/04/01 16:33:07;;;;;;;83.52;18.65;;;;;;;19.32;90.61;98559.63;5042907;57;1141111;-81
2024/04/01 16:38:14;;;;;;;229.40;93.35;;;;;;;19.26;91.52;98566.69;5089173;56;1140828;-82
2024/04/01 16:43:20;;;;;;;82.15;23.52;;;;;;;19.22;90.90;98562.84;5112021;56;1142622;-80
2024/04/01 16:48:26;;;;;;;64.55;22.55;;;;;;;19.23;90.77;98559.63;5042325;56;1140544;-81
2024/04/01 16:53:36;;;;;;;59.60;14.97;;;;;;;19.24;90.19;98562.09;5042498;56;1140626;-83
2024/04/01 16:58:40;;;;;;;44.00;9.05;;;;;;;19.26;89.92;98574.73;5125773;56;1141110;-82
2024/04/01 17:03:46;;;;;;;49.35;10.55;;;;;;;19.18;90.11;98588.43;5058183;56;1138771;-80
2024/04/01 17:08:56;;;;;;;56.38;12.76;;;;;;;19.06;91.01;98595.56;5088334;56;1140742;-79
2024/04/01 17:14:03;;;;;;;61.42;14.35;;;;;;;18.90;94.20;98586.74;5147997;55;1141349;-81
2024/04/01 17:19:10;;;;;;;58.75;10.35;;;;;;;18.68;98.49;98590.83;5059058;56;1141200;-80
2024/04/01 17:24:16;;;;;;;57.45;15.15;;;;;;;18.50;100.00;98597.71;5041948;56;1141194;-82
2024/04/01 17:29:23;;;;;;;49.50;11.50;;;;;;;18.38;100.00;98628.07;5061889;57;1143068;-82
2024/04/01 17:34:29;;;;;;;49.08;8.60;;;;;;;18.21;100.00;98640.61;5041664;57;1142906;-81
2024/04/01 17:39:35;;;;;;;31.50;7.20;;;;;;;18.08;100.00;98710.75;5042021;56;1141041;-81
2024/04/01 17:44:42;;;;;;;11.93;3.57;;;;;;;17.30;100.00;98720.52;5091153;56;1140963;-80
2024/04/01 17:49:48;;;;;;;48.93;28.73;;;;;;;16.13;100.00;98759.02;5065918;55;1140678;-81
2024/04/01 17:54:55;;;;;;;19.63;5.17;;;;;;;15.38;100.00;98674.48;5057815;56;1142912;-80
2024/04/01 18:00:01;;;;;;;19.05;6.30;;;;;;;14.95;100.00;98672.92;5146519;56;1140822;-81
2024/04/01 18:05:08;;;;;;;33.45;9.63;;;;;;;14.79;100.00;98681.99;5140387;56;1140644;-82
2024/04/01 18:10:15;;;;;;;23.73;7.20;;;;;;;14.76;100.00;98675.72;5109789;56;1140701;-79
2024/04/01 18:15:22;;;;;;;15.53;3.87;;;;;;;14.80;100.00;98748.02;5075547;56;1140771;-82
2024/04/01 18:20:28;;;;;;;19.03;3.97;;;;;;;14.80;100.00;98787.94;5135302;56;1140822;-81
2024/04/01 18:25:33;;;;;;;27.00;5.63;;;;;;;14.85;100.00;98784.19;5139598;56;1140659;-80
2024/04/01 18:30:40;;;;;;;12.68;3.52;;;;;;;14.92;100.00;98768.63;5116372;56;1141051;-82
2024/04/01 18:35:47;;;;;;;18.20;6.17;;;;;;;14.90;100.00;98745.35;5149505;56;1140715;-81
2024/04/01 18:40:54;;;;;;;48.27;17.60;;;;;;;14.95;100.00;98756.77;5076581;56;1173173;-81
2024/04/01 18:46:00;;;;;;;18.40;5.45;;;;;;;14.99;100.00;98772.66;5109181;56;1142648;-82
2024/04/01 18:51:08;;;;;;;13.32;4.47;;;;;;;14.99;100.00;98803.27;5145466;56;1140943;-81
2024/04/01 18:56:14;;;;;;;19.40;3.83;;;;;;;14.90;100.00;98819.06;5110549;56;1141180;-82
2024/04/01 19:01:19;;;;;;;37.37;19.53;;;;;;;14.91;100.00;98828.20;5129065;56;1140797;-82
2024/04/01 19:06:26;;;;;;;19.80;6.00;;;;;;;14.99;100.00;98811.27;5082673;56;1143267;-82
2024/04/01 19:11:31;;;;;;;11.67;5.20;;;;;;;14.94;100.00;98801.20;5108858;56;1141104;-82
2024/04/01 19:16:37;;;;;;;15.83;4.10;;;;;;;14.86;100.00;98778.68;5079714;56;1140938;-83
2024/04/01 19:21:43;;;;;;;12.83;3.50;;;;;;;14.85;100.00;98762.89;5071795;56;1140648;-81
2024/04/01 19:26:49;;;;;;;31.13;10.47;;;;;;;14.96;100.00;98765.08;5057493;56;1140646;-80
2024/04/01 19:31:55;;;;;;;47.57;16.30;;;;;;;15.10;100.00;98758.87;5082682;56;1143016;-81
2024/04/01 19:37:00;;;;;;;195.87;61.97;;;;;;;15.21;100.00;98784.15;5146467;56;1143006;-81
2024/04/01 19:42:06;;;;;;;51.07;18.63;;;;;;;15.11;100.00;98789.30;5118201;56;1144897;-81
2024/04/01 19:47:12;;;;;;;23.93;6.87;;;;;;;14.99;100.00;98806.77;5093679;56;1143028;-81
2024/04/01 19:52:24;;;;;;;15.27;5.27;;;;;;;14.91;100.00;98799.42;5116561;56;1140860;-82
2024/04/01 19:57:34;;;;;;;144.40;44.80;;;;;;;14.88;100.00;98786.48;5041921;57;1141054;-80
2024/04/01 20:02:36;;;;;;;178.07;57.80;;;;;;;15.03;100.00;98780.59;5124018;56;1145139;-80
2024/04/01 20:07:42;;;;;;;128.90;40.97;;;;;;;15.09;100.00;98784.66;5118462;56;1145148;-81
2024/04/01 20:12:48;;;;;;;29.43;8.13;;;;;;;14.99;100.00;98789.97;5111675;56;1145042;-81
2024/04/01 20:17:55;;;;;;;13.77;6.60;;;;;;;14.89;100.00;98772.16;5119273;56;1140919;-82
2024/04/01 20:23:04;;;;;;;9.98;3.67;;;;;;;14.77;100.00;98783.31;5147149;56;1140948;-81
2024/04/01 20:28:17;;;;;;;14.10;4.60;;;;;;;14.69;100.00;98780.75;5116290;55;1139149;-81
2024/04/01 20:33:28;;;;;;;10.50;3.13;;;;;;;14.54;100.00;98792.43;5042875;56;1140933;-80
2024/04/01 20:38:33;;;;;;;13.37;4.37;;;;;;;14.38;100.00;98807.55;4959947;57;1141163;-82
2024/04/01 20:43:39;;;;;;;19.43;5.20;;;;;;;14.29;100.00;98786.58;5062945;56;1140872;-83
2024/04/01 20:48:46;;;;;;;14.10;3.57;;;;;;;14.28;100.00;98775.61;5043327;56;1140972;-81
2024/04/01 20:53:51;;;;;;;13.07;3.00;;;;;;;14.16;100.00;98765.96;4917283;58;1140782;-83
2024/04/01 20:59:02;;;;;;;16.07;2.57;;;;;;;14.03;100.00;98758.64;4995718;57;1140898;-83
2024/04/01 21:04:10;;;;;;;8.55;2.20;;;;;;;13.93;100.00;98778.50;5119141;56;1140796;-81
2024/04/01 21:09:16;;;;;;;12.07;2.53;;;;;;;13.76;100.00;98770.38;5110222;56;1138575;-79
2024/04/01 21:14:22;;;;;;;12.77;2.60;;;;;;;13.64;100.00;98781.46;5126729;56;1140551;-82
2024/04/01 21:19:28;;;;;;;14.37;4.77;;;;;;;13.48;100.00;98760.36;5106674;56;1141031;-82
2024/04/01 21:24:34;;;;;;;6.63;2.70;;;;;;;13.37;100.00;98762.13;5111742;56;1140782;-79
2024/04/01 21:29:40;;;;;;;5.33;1.90;;;;;;;13.27;100.00;98785.47;5158267;56;1138958;-83
2024/04/01 21:34:45;;;;;;;7.67;2.40;;;;;;;13.20;100.00;98776.05;5138165;56;1138874;-82
2024/04/01 21:39:51;;;;;;;6.60;2.47;;;;;;;13.13;100.00;98787.53;5138225;56;1138887;-81
2024/04/01 21:44:58;;;;;;;7.27;1.67;;;;;;;13.09;100.00;98795.52;5158299;56;1139145;-83
2024/04/01 21:50:04;;;;;;;6.17;2.43;;;;;;;13.00;100.00;98790.75;5138041;56;1138757;-82
2024/04/01 21:55:10;;;;;;;6.92;2.45;;;;;;;12.97;100.00;98785.33;5116495;56;1139153;-79
2024/04/01 22:05:30;;;;;;;9.83;2.03;;;;;;;12.89;100.00;98789.84;5138178;56;1138892;-80
2024/04/01 22:10:36;;;;;;;2.87;1.83;;;;;;;12.86;100.00;98792.34;5131218;56;1143283;-80
2024/04/01 22:15:41;;;;;;;10.27;2.70;;;;;;;12.88;100.00;98789.52;5147051;56;1138621;-83
2024/04/01 22:20:47;;;;;;;8.50;2.37;;;;;;;12.86;100.00;98810.91;5125498;56;1140661;-80
2024/04/01 22:25:58;;;;;;;5.97;2.67;;;;;;;12.86;100.00;98829.48;5022511;57;1139049;-81
2024/04/01 22:31:00;;;;;;;5.83;2.00;;;;;;;12.84;100.00;98820.88;5137620;56;1138899;-79
2024/04/01 22:36:07;;;;;;;4.60;1.60;;;;;;;12.76;100.00;98835.52;5023186;57;1139061;-80
2024/04/01 22:41:12;;;;;;;5.80;1.60;;;;;;;12.68;100.00;98835.55;5119011;56;1138867;-82
2024/04/01 22:46:18;;;;;;;4.77;1.90;;;;;;;12.65;100.00;98834.59;5139447;56;1138755;-82
2024/04/01 22:51:24;;;;;;;3.93;1.70;;;;;;;12.60;100.00;98844.88;5040330;57;1138998;-79
2024/04/01 22:56:29;;;;;;;4.73;1.40;;;;;;;12.57;100.00;98855.83;5126831;56;1138673;-81
2024/04/01 23:01:37;;;;;;;3.17;1.43;;;;;;;12.54;100.00;98864.13;5126563;56;1138687;-82
2024/04/01 23:06:43;;;;;;;3.93;1.40;;;;;;;12.52;100.00;98868.80;5146813;56;1138599;-80
2024/04/01 23:11:51;;;;;;;2.87;1.20;;;;;;;12.51;100.00;98872.45;5132011;56;1138629;-80
2024/04/01 23:16:57;;;;;;;7.83;1.43;;;;;;;12.51;100.00;98885.70;5126361;56;1138930;-80